Time;durP1;ratioP1;P1;durP2;ratioP2;P2;SDS_P1;SDS_P2;PMS_P1;PMS_P2;Temp;Humidity;BMP_temperature;BMP_pressure;BME280_temperature;BME280_humidity;BME280_pressure;Samples;Min_cycle;Max_cycle;Signal;HPM_P1;HPM_P2
2023/07/31 00:00:53;;;;;;;2.50;1.50;;;;;;;17.81;100.00;99884.44;180680;1256;43747;-62
2023/07/31 00:05:05;;;;;;;3.20;1.70;;;;;;;17.76;100.00;99880.80;180708;1256;45939;-62
2023/07/31 00:09:09;;;;;;;7.10;1.90;;;;;;;17.68;100.00;99877.65;180522;1256;43513;-61
2023/07/31 00:13:12;;;;;;;7.20;2.70;;;;;;;17.64;100.00;99877.58;180583;1256;43642;-61
2023/07/31 00:17:18;;;;;;;13.60;3.20;;;;;;;17.60;100.00;99875.83;180889;1254;57934;-62
2023/07/31 00:21:26;;;;;;;6.40;2.70;;;;;;;17.59;100.00;99879.75;180704;1256;43578;-62
2023/07/31 00:25:30;;;;;;;10.50;2.50;;;;;;;17.60;100.00;99880.88;180660;1254;43743;-62
2023/07/31 00:29:33;;;;;;;4.30;1.60;;;;;;;17.57;100.00;99877.98;180805;1254;45868;-62
2023/07/31 00:33:38;;;;;;;5.00;1.60;;;;;;;17.52;100.00;99883.00;180662;1254;43742;-62
2023/07/31 00:37:42;;;;;;;7.10;1.90;;;;;;;17.51;100.00;99888.19;180538;1255;58502;-63
2023/07/31 00:41:45;;;;;;;11.50;2.50;;;;;;;17.50;100.00;99881.26;180578;1255;43554;-62
2023/07/31 00:45:48;;;;;;;17.60;2.20;;;;;;;17.45;100.00;99882.61;180489;1256;45921;-63
2023/07/31 00:50:43;;;;;;;6.40;2.70;;;;;;;17.39;100.00;99882.10;180560;1256;44988;-63
2023/07/31 00:54:48;;;;;;;11.00;3.00;;;;;;;17.22;100.00;99880.69;180440;1255;44849;-64
2023/07/31 00:58:55;;;;;;;17.70;3.60;;;;;;;17.07;100.00;99881.12;180453;1255;57398;-63
2023/07/31 01:02:58;;;;;;;11.40;3.60;;;;;;;16.98;100.00;99881.53;180518;1255;45986;-63
2023/07/31 01:07:15;;;;;;;9.80;2.50;;;;;;;16.87;100.00;99883.48;180658;1255;43656;-64
2023/07/31 01:11:43;;;;;;;11.80;3.70;;;;;;;16.71;100.00;99884.96;180677;1254;46066;-64
2023/07/31 01:15:46;;;;;;;6.00;1.80;;;;;;;16.53;100.00;99882.06;180546;1256;43899;-64
2023/07/31 01:19:50;;;;;;;12.60;3.00;;;;;;;16.37;100.00;99885.27;180340;1255;57720;-63
2023/07/31 01:24:30;;;;;;;8.00;2.70;;;;;;;16.33;100.00;99884.40;180661;1254;45939;-63
2023/07/31 01:28:56;;;;;;;13.80;2.70;;;;;;;16.31;100.00;99883.73;180721;1255;46233;-63
2023/07/31 01:33:03;;;;;;;11.60;2.70;;;;;;;16.28;100.00;99884.11;180552;1256;45979;-63
2023/07/31 01:37:09;;;;;;;10.30;3.10;;;;;;;16.25;100.00;99885.27;180369;1255;44876;-63
2023/07/31 01:41:13;;;;;;;11.10;3.00;;;;;;;16.19;100.00;99880.11;180763;1254;58608;-62
2023/07/31 01:45:42;;;;;;;7.60;3.00;;;;;;;16.01;100.00;99877.21;180443;1256;45997;-62
2023/07/31 01:49:45;;;;;;;8.80;3.20;;;;;;;15.89;100.00;99878.73;180563;1255;44644;-61
2023/07/31 01:53:48;;;;;;;12.70;3.60;;;;;;;15.83;100.00;99883.48;180651;1255;45358;-62
2023/07/31 01:57:52;;;;;;;14.40;3.30;;;;;;;15.85;100.00;99878.13;180706;1256;44262;-62
2023/07/31 05:03:23;;;;;;;4.50;2.30;;;;;;;18.16;100.00;99849.66;174198;1292;567690;-83
2023/07/31 05:07:26;;;;;;;7.30;2.40;;;;;;;18.19;100.00;99851.64;179086;1269;59501;-82
2023/07/31 05:11:30;;;;;;;9.30;2.60;;;;;;;18.26;100.00;99850.79;181270;1257;43717;-83
2023/07/31 05:15:33;;;;;;;4.80;1.50;;;;;;;18.38;100.00;99847.55;179049;1257;210073;-83
2023/07/31 05:19:36;;;;;;;5.50;2.30;;;;;;;18.54;100.00;99845.58;179832;1255;44783;-84
2023/07/31 05:23:40;;;;;;;2.10;1.60;;;;;;;18.69;100.00;99839.02;179187;1254;46159;-84
2023/07/31 05:27:43;;;;;;;3.20;2.30;;;;;;;18.77;100.00;99832.48;178956;1257;60336;-83
2023/07/31 05:31:46;;;;;;;4.40;2.10;;;;;;;18.83;100.00;99834.25;179261;1254;46534;-84
2023/07/31 05:35:50;;;;;;;6.30;1.70;;;;;;;18.94;100.00;99834.25;178232;1256;44223;-84
2023/07/31 05:39:53;;;;;;;4.60;1.80;;;;;;;19.02;100.00;99836.98;178569;1257;46096;-84
2023/07/31 05:43:56;;;;;;;5.20;2.10;;;;;;;19.08;100.00;99831.33;179175;1254;46106;-84
2023/07/31 05:47:59;;;;;;;6.20;1.70;;;;;;;19.16;100.00;99834.14;178850;1252;57646;-84
2023/07/31 05:52:03;;;;;;;4.00;2.40;;;;;;;19.22;100.00;99831.58;178321;1254;46121;-84
2023/07/31 05:56:06;;;;;;;1.90;1.60;;;;;;;19.28;100.00;99832.63;178514;1253;46008;-84
2023/07/31 06:00:10;;;;;;;4.80;1.90;;;;;;;19.35;100.00;99832.48;178629;1256;46117;-84
2023/07/31 06:04:14;;;;;;;6.60;2.60;;;;;;;19.46;100.00;99831.08;178396;1254;46697;-83
2023/07/31 06:08:17;;;;;;;11.40;2.90;;;;;;;19.48;100.00;99834.70;178866;1254;60692;-83
2023/07/31 06:12:21;;;;;;;4.10;1.90;;;;;;;19.50;100.00;99839.95;178724;1254;45979;-84
2023/07/31 06:16:26;;;;;;;5.90;1.80;;;;;;;19.56;100.00;99840.77;178897;1254;45703;-83
2023/07/31 06:20:30;;;;;;;8.30;2.70;;;;;;;19.59;100.00;99840.92;178515;1252;46286;-83
2023/07/31 06:24:33;;;;;;;5.00;1.80;;;;;;;19.66;100.00;99840.77;178157;1257;45990;-84
2023/07/31 06:28:37;;;;;;;7.10;1.50;;;;;;;19.78;100.00;99842.27;178400;1254;59570;-84
2023/07/31 06:32:40;;;;;;;5.50;2.90;;;;;;;19.98;100.00;99835.69;179460;1256;45910;-84
2023/07/31 06:36:44;;;;;;;6.30;1.60;;;;;;;20.07;100.00;99838.77;178586;1254;46073;-84
2023/07/31 06:40:48;;;;;;;5.60;2.20;;;;;;;20.10;100.00;99833.98;178608;1254;46115;-84
2023/07/31 06:44:52;;;;;;;4.50;2.20;;;;;;;20.18;100.00;99836.66;178944;1252;45983;-84
2023/07/31 06:48:55;;;;;;;7.20;2.20;;;;;;;20.31;100.00;99840.55;178835;1257;58058;-84
2023/07/31 06:52:59;;;;;;;5.80;2.00;;;;;;;20.43;100.00;99833.95;178629;1254;45993;-83
2023/07/31 06:57:03;;;;;;;3.40;2.10;;;;;;;20.59;100.00;99831.35;178793;1255;46101;-84
2023/07/31 07:01:06;;;;;;;4.90;2.30;;;;;;;20.84;100.00;99831.76;179038;1254;46102;-84
2023/07/31 07:05:10;;;;;;;4.20;2.20;;;;;;;21.15;100.00;99833.94;179480;1254;45954;-84
2023/07/31 07:09:13;;;;;;;4.50;1.80;;;;;;;21.49;97.83;99826.88;180116;1254;58200;-84
2023/07/31 07:13:18;;;;;;;1.90;1.60;;;;;;;21.80;95.57;99821.95;179349;1251;46102;-84
2023/07/31 07:17:21;;;;;;;2.80;1.60;;;;;;;22.10;91.87;99813.70;180043;1254;46015;-84
2023/07/31 07:21:25;;;;;;;5.50;1.80;;;;;;;22.28;90.27;99813.39;179417;1254;44501;-84
2023/07/31 07:25:28;;;;;;;2.80;1.30;;;;;;;22.39;86.14;99814.05;179821;1253;46013;-84
2023/07/31 07:29:34;;;;;;;5.90;2.00;;;;;;;22.50;85.69;99811.14;179557;1257;59661;-84
2023/07/31 07:33:38;;;;;;;5.00;1.90;;;;;;;22.63;82.51;99805.45;179605;1254;46028;-84
2023/07/31 07:37:41;;;;;;;3.40;1.30;;;;;;;22.78;84.33;99802.14;180131;1257;46093;-84
2023/07/31 07:41:45;;;;;;;2.10;1.00;;;;;;;22.86;80.24;99803.05;179950;1252;46146;-85
2023/07/31 07:45:49;;;;;;;9.30;2.10;;;;;;;22.88;78.22;99801.88;179856;1254;45921;-84
2023/07/31 07:49:53;;;;;;;5.60;1.70;;;;;;;22.93;79.55;99804.34;179794;1252;59538;-84
2023/07/31 07:53:57;;;;;;;4.00;1.30;;;;;;;23.06;78.13;99804.88;180086;1253;46076;-84
2023/07/31 07:58:01;;;;;;;16.10;1.70;;;;;;;23.08;79.29;99808.79;179797;1256;45965;-84
2023/07/31 08:02:05;;;;;;;5.90;1.70;;;;;;;22.88;75.82;99806.55;180254;1252;44040;-84
2023/07/31 08:06:09;;;;;;;10.60;1.80;;;;;;;22.51;73.93;99813.75;180072;1254;46066;-84
2023/07/31 08:10:13;;;;;;;4.70;1.80;;;;;;;22.15;73.23;99814.85;179971;1254;58748;-84
2023/07/31 08:14:16;;;;;;;4.50;0.90;;;;;;;21.79;75.99;99823.06;179528;1254;45987;-84
2023/07/31 08:18:20;;;;;;;8.00;1.60;;;;;;;21.40;77.03;99819.96;179649;1254;46119;-83
2023/07/31 08:22:25;;;;;;;4.60;1.00;;;;;;;21.03;78.65;99822.41;180067;1253;43937;-84
2023/07/31 08:26:28;;;;;;;2.00;1.00;;;;;;;20.79;80.07;99827.30;179790;1253;45247;-84
2023/07/31 08:30:36;;;;;;;2.10;0.90;;;;;;;20.69;81.44;99828.63;179838;1253;59495;-83
2023/07/31 08:34:39;;;;;;;1.60;0.90;;;;;;;20.65;81.81;99834.08;179842;1254;45993;-83
2023/07/31 08:38:43;;;;;;;2.10;0.90;;;;;;;20.64;82.98;99826.25;179243;1254;46486;-84
2023/07/31 08:42:48;;;;;;;4.30;2.10;;;;;;;20.61;82.60;99829.06;179268;1256;45925;-83
2023/07/31 08:46:52;;;;;;;5.50;2.00;;;;;;;20.61;84.07;99832.01;179192;1257;46335;-83
2023/07/31 08:50:55;;;;;;;2.70;0.90;;;;;;;20.58;84.17;99833.88;178732;1253;59643;-83
2023/07/31 08:54:59;;;;;;;2.80;0.70;;;;;;;20.45;84.09;99830.09;179150;1253;46204;-83
2023/07/31 08:59:04;;;;;;;2.40;0.80;;;;;;;20.37;85.26;99829.10;179462;1252;44763;-84
2023/07/31 09:03:16;;;;;;;1.80;1.10;;;;;;;20.38;86.19;99829.61;179424;1256;46091;-83
2023/07/31 09:07:21;;;;;;;2.20;0.80;;;;;;;20.43;88.54;99831.16;179391;1252;46009;-83
2023/07/31 09:11:25;;;;;;;2.00;0.90;;;;;;;20.57;89.12;99827.30;179591;1254;59594;-83
2023/07/31 09:15:28;;;;;;;3.00;1.00;;;;;;;20.73;86.85;99823.36;179428;1252;46031;-83
2023/07/31 09:19:40;;;;;;;6.10;1.40;;;;;;;20.83;88.10;99820.89;179052;1254;45996;-83
2023/07/31 09:23:45;;;;;;;2.40;1.00;;;;;;;20.92;87.82;99821.64;179021;1253;45954;-84
2023/07/31 09:27:54;;;;;;;1.40;0.80;;;;;;;20.94;87.46;99824.84;179749;1254;44136;-83
2023/07/31 09:31:57;;;;;;;2.70;0.80;;;;;;;20.90;85.89;99825.92;179719;1253;58825;-83
2023/07/31 09:36:04;;;;;;;1.50;0.90;;;;;;;20.82;86.51;99830.70;179509;1252;44046;-83
2023/07/31 09:40:08;;;;;;;2.10;1.30;;;;;;;20.82;86.07;99833.46;179513;1254;46028;-83
2023/07/31 09:44:12;;;;;;;1.80;0.90;;;;;;;20.74;86.52;99834.55;180117;1253;44238;-83
2023/07/31 09:48:17;;;;;;;3.90;1.20;;;;;;;20.70;91.01;99831.64;179977;1253;46150;-83
2023/07/31 09:52:25;;;;;;;3.00;1.40;;;;;;;20.63;90.07;99829.83;179680;1253;59289;-83
2023/07/31 09:56:32;;;;;;;5.50;1.80;;;;;;;20.67;91.71;99828.00;179433;1253;46037;-83
2023/07/31 10:00:36;;;;;;;2.10;1.20;;;;;;;20.83;91.93;99826.82;179430;1253;46086;-83
2023/07/31 10:04:57;;;;;;;4.20;1.30;;;;;;;20.95;91.32;99826.14;179554;1253;46083;-83
2023/07/31 10:09:03;;;;;;;1.10;0.50;;;;;;;21.11;89.54;99815.88;179352;1252;45996;-83
2023/07/31 10:13:08;;;;;;;3.40;2.10;;;;;;;21.23;88.13;99811.57;179441;1256;58483;-84
2023/07/31 10:17:13;;;;;;;3.30;1.40;;;;;;;21.30;86.45;99808.32;179381;1252;45973;-83
2023/07/31 10:21:18;;;;;;;3.10;1.40;;;;;;;21.37;86.91;99801.65;179248;1252;46022;-83
2023/07/31 10:25:22;;;;;;;2.20;1.10;;;;;;;21.51;87.89;99800.65;179240;1254;46111;-84
2023/07/31 10:29:27;;;;;;;1.80;1.20;;;;;;;21.68;86.86;99795.27;179590;1254;46003;-83
2023/07/31 10:33:31;;;;;;;3.10;1.30;;;;;;;21.87;85.22;99789.83;179554;1253;58072;-84
2023/07/31 10:37:43;;;;;;;2.00;1.10;;;;;;;22.05;83.04;99775.48;180089;1254;44763;-84
2023/07/31 10:41:47;;;;;;;2.50;1.10;;;;;;;22.23;82.11;99773.23;179482;1255;45989;-84
2023/07/31 10:45:50;;;;;;;2.30;1.10;;;;;;;22.38;80.85;99770.23;179954;1253;43752;-84
2023/07/31 10:50:17;;;;;;;2.50;1.30;;;;;;;22.43;82.09;99770.46;180252;1253;45971;-83
2023/07/31 10:54:21;;;;;;;5.80;1.40;;;;;;;22.64;83.29;99767.20;179931;1253;59538;-84
2023/07/31 10:58:25;;;;;;;1.20;0.90;;;;;;;22.88;81.36;99757.03;179942;1253;46551;-83
2023/07/31 11:02:31;;;;;;;1.90;1.00;;;;;;;23.13;79.48;99753.11;179855;1252;46089;-84
2023/07/31 11:06:36;;;;;;;6.30;2.30;;;;;;;23.30;80.05;99744.62;179906;1253;46069;-83
2023/07/31 11:10:41;;;;;;;5.50;1.40;;;;;;;23.37;81.05;99739.20;180523;1253;46131;-83
2023/07/31 11:14:55;;;;;;;2.80;2.50;;;;;;;23.62;79.04;99732.12;180254;1254;59238;-84
2023/07/31 11:18:58;;;;;;;1.70;1.60;;;;;;;23.86;79.58;99721.37;179887;1252;46216;-84
2023/07/31 11:23:04;;;;;;;3.30;1.60;;;;;;;24.03;79.62;99717.17;180301;1254;46082;-84
2023/07/31 11:27:07;;;;;;;;;;;;;;;24.14;77.58;99709.35;180580;1253;46434;-84
2023/07/31 11:31:11;;;;;;;1.60;1.50;;;;;;;24.39;74.22;99705.18;180258;1253;45807;-84
2023/07/31 11:35:14;;;;;;;3.20;2.50;;;;;;;24.60;72.40;99700.45;180480;1252;58557;-84
2023/07/31 11:39:18;;;;;;;2.30;1.70;;;;;;;24.71;70.84;99695.64;180143;1256;45974;-83
2023/07/31 11:43:23;;;;;;;3.60;1.70;;;;;;;24.98;71.85;99692.45;180306;1253;45996;-84
2023/07/31 11:47:27;;;;;;;2.50;1.20;;;;;;;24.98;70.41;99680.48;180284;1254;45757;-84
2023/07/31 11:51:31;;;;;;;1.40;1.30;;;;;;;24.87;70.41;99679.25;180395;1256;45934;-83
2023/07/31 11:55:35;;;;;;;3.40;1.70;;;;;;;24.71;69.75;99679.98;180473;1254;59426;-84
2023/07/31 11:59:40;;;;;;;2.00;1.20;;;;;;;24.62;70.88;99678.03;180448;1254;44364;-84
2023/07/31 12:03:45;;;;;;;1.90;1.10;;;;;;;24.59;71.83;99679.42;180288;1252;46242;-84
2023/07/31 12:07:57;;;;;;;3.50;1.40;;;;;;;24.54;70.63;99674.81;180906;1254;46021;-84
2023/07/31 12:12:01;;;;;;;2.20;1.80;;;;;;;24.48;71.76;99666.05;180401;1253;44716;-83
2023/07/31 12:16:05;;;;;;;1.70;1.40;;;;;;;24.44;72.68;99662.64;180063;1253;59620;-83
2023/07/31 12:20:10;;;;;;;6.40;2.20;;;;;;;24.58;72.67;99656.77;180360;1256;46167;-83
2023/07/31 12:24:18;;;;;;;1.80;1.30;;;;;;;24.69;71.07;99640.36;180206;1253;46044;-84
2023/07/31 12:28:22;;;;;;;1.30;1.10;;;;;;;24.79;69.99;99630.96;180191;1254;44636;-84
2023/07/31 12:32:30;;;;;;;3.50;1.80;;;;;;;24.86;69.27;99630.55;180347;1256;44797;-84
2023/07/31 12:36:35;;;;;;;2.10;1.80;;;;;;;24.91;68.85;99627.28;180295;1254;59265;-84
2023/07/31 12:40:40;;;;;;;;;;;;;;;24.94;69.54;99627.14;180343;1254;45907;-84
2023/07/31 12:44:44;;;;;;;2.30;1.40;;;;;;;24.87;67.73;99620.23;180645;1253;44306;-84
2023/07/31 12:48:47;;;;;;;3.90;2.30;;;;;;;24.78;67.77;99618.67;180228;1253;45225;-83
2023/07/31 12:52:52;;;;;;;3.40;1.40;;;;;;;24.81;68.27;99605.42;180302;1253;45638;-84
2023/07/31 12:56:56;;;;;;;2.20;1.40;;;;;;;24.82;64.80;99596.63;180659;1254;60063;-84
2023/07/31 13:05:38;;;;;;;1.90;1.40;;;;;;;24.73;65.13;99597.81;181093;1260;44560;-84
2023/07/31 13:09:47;;;;;;;2.90;1.30;;;;;;;24.62;65.48;99595.10;179969;1259;44586;-83
2023/07/31 13:13:51;;;;;;;3.60;1.40;;;;;;;24.88;64.89;99586.64;179846;1258;45351;-83
2023/07/31 13:17:55;;;;;;;4.10;1.70;;;;;;;24.96;64.95;99594.64;179939;1257;58099;-83
2023/07/31 13:21:59;;;;;;;3.70;1.50;;;;;;;25.09;64.51;99591.44;180012;1259;51541;-83
2023/07/31 13:26:04;;;;;;;3.10;2.10;;;;;;;25.24;64.88;99591.63;179932;1258;46000;-82
2023/07/31 13:30:08;;;;;;;2.40;1.00;;;;;;;25.15;65.61;99582.86;179925;1259;44818;-82
2023/07/31 13:34:12;;;;;;;2.50;1.50;;;;;;;25.05;63.15;99586.40;179994;1258;43649;-82
2023/07/31 13:38:19;;;;;;;2.40;1.60;;;;;;;25.09;63.61;99581.48;180147;1259;57607;-83
2023/07/31 13:42:23;;;;;;;1.50;0.60;;;;;;;25.32;62.50;99583.60;179941;1259;45945;-82
2023/07/31 13:46:27;;;;;;;1.50;1.00;;;;;;;25.36;62.67;99583.08;179827;1259;43625;-83
2023/07/31 13:50:31;;;;;;;3.30;2.00;;;;;;;25.32;63.16;99580.59;179800;1260;46099;-83
2023/07/31 13:54:35;;;;;;;2.80;1.90;;;;;;;25.23;63.14;99578.52;179850;1259;46000;-83
2023/07/31 13:58:39;;;;;;;3.70;1.90;;;;;;;25.04;64.28;99580.45;180040;1261;59522;-83
2023/07/31 14:02:44;;;;;;;1.80;1.10;;;;;;;24.84;64.55;99583.64;179904;1260;43842;-83
2023/07/31 14:06:50;;;;;;;1.60;1.00;;;;;;;24.61;65.87;99586.81;179481;1259;45963;-83
2023/07/31 14:10:54;;;;;;;2.60;2.20;;;;;;;24.41;66.62;99591.13;179629;1256;46098;-83
2023/07/31 14:14:58;;;;;;;2.40;1.30;;;;;;;24.23;65.74;99590.05;179547;1260;45997;-83
2023/07/31 14:19:02;;;;;;;2.30;1.50;;;;;;;24.21;65.77;99590.49;179390;1259;58357;-82
2023/07/31 14:23:06;;;;;;;2.90;2.50;;;;;;;24.21;64.65;99588.08;179734;1259;46152;-83
2023/07/31 14:27:11;;;;;;;2.10;1.30;;;;;;;24.32;65.43;99581.80;179826;1262;46128;-83
2023/07/31 14:31:14;;;;;;;2.60;1.50;;;;;;;24.45;65.80;99586.60;179642;1258;44093;-83
2023/07/31 14:35:18;;;;;;;3.40;2.40;;;;;;;24.56;65.04;99579.09;179544;1259;45965;-83
2023/07/31 14:39:23;;;;;;;4.40;1.50;;;;;;;24.73;65.90;99578.84;179949;1259;58521;-83
2023/07/31 14:43:27;;;;;;;4.10;2.10;;;;;;;24.72;64.86;99573.85;179996;1259;45637;-83
2023/07/31 14:47:34;;;;;;;2.30;1.80;;;;;;;24.79;65.13;99573.12;179956;1259;46039;-83
2023/07/31 14:51:39;;;;;;;2.50;1.90;;;;;;;24.77;65.79;99568.21;179953;1260;43581;-83
2023/07/31 14:55:43;;;;;;;1.70;1.30;;;;;;;24.74;65.66;99564.06;179780;1259;44109;-83
2023/07/31 14:59:48;;;;;;;3.90;1.90;;;;;;;24.68;65.25;99557.68;179938;1257;58434;-83
2023/07/31 15:03:52;;;;;;;2.30;1.60;;;;;;;24.77;66.67;99550.05;179951;1260;46092;-83
2023/07/31 15:07:56;;;;;;;3.30;1.60;;;;;;;24.95;68.60;99540.50;179847;1259;45189;-83
2023/07/31 15:12:01;;;;;;;6.60;1.80;;;;;;;25.24;68.17;99534.90;179699;1259;46005;-83
2023/07/31 15:16:05;;;;;;;2.20;1.00;;;;;;;25.43;65.99;99528.23;179809;1257;45953;-83
2023/07/31 15:20:11;;;;;;;3.40;1.00;;;;;;;25.41;65.29;99520.23;179894;1259;58788;-84
2023/07/31 15:24:16;;;;;;;2.00;1.40;;;;;;;25.33;65.05;99519.05;179818;1258;43914;-83
2023/07/31 15:28:20;;;;;;;2.60;1.80;;;;;;;25.27;65.53;99507.72;179913;1259;46223;-83
2023/07/31 15:32:24;;;;;;;3.00;1.20;;;;;;;25.23;65.70;99503.25;179767;1259;46040;-83
2023/07/31 15:36:28;;;;;;;1.30;1.10;;;;;;;25.19;66.40;99505.04;180023;1259;46149;-83
2023/07/31 15:40:32;;;;;;;2.00;1.50;;;;;;;25.12;66.28;99495.18;179908;1260;57477;-83
2023/07/31 15:44:36;;;;;;;1.60;1.40;;;;;;;25.10;66.15;99493.85;180197;1260;45427;-83
2023/07/31 15:48:41;;;;;;;2.30;2.00;;;;;;;25.03;66.34;99488.97;179846;1260;45114;-83
2023/07/31 15:52:45;;;;;;;2.50;1.10;;;;;;;25.00;66.48;99484.30;179624;1259;45937;-84
2023/07/31 15:56:49;;;;;;;5.30;1.60;;;;;;;24.91;66.84;99483.30;179738;1263;45952;-83
2023/07/31 16:00:53;;;;;;;2.40;2.10;;;;;;;24.84;68.05;99483.90;179815;1259;60674;-83
2023/07/31 16:04:57;;;;;;;5.70;2.50;;;;;;;24.75;68.57;99481.42;179803;1257;46042;-84
2023/07/31 16:09:01;;;;;;;4.40;1.50;;;;;;;24.65;68.85;99475.38;179333;1259;44749;-83
2023/07/31 16:13:05;;;;;;;2.80;1.80;;;;;;;24.51;69.20;99470.89;179385;1258;45499;-83
2023/07/31 16:17:09;;;;;;;3.70;1.60;;;;;;;24.29;69.69;99466.55;179573;1260;46042;-84
2023/07/31 16:21:12;;;;;;;1.80;1.50;;;;;;;24.11;70.69;99472.02;179155;1262;59016;-83
2023/07/31 16:25:16;;;;;;;1.80;1.60;;;;;;;23.96;72.68;99468.42;179199;1260;46044;-83
2023/07/31 16:29:20;;;;;;;8.70;1.70;;;;;;;23.89;72.91;99475.08;179738;1259;46044;-82
2023/07/31 16:33:24;;;;;;;3.50;0.90;;;;;;;23.85;72.26;99474.08;179937;1259;45975;-83
2023/07/31 16:37:28;;;;;;;3.70;1.40;;;;;;;23.86;71.46;99474.19;179571;1259;46061;-83
2023/07/31 16:41:31;;;;;;;3.60;1.60;;;;;;;23.89;71.84;99476.13;179455;1259;59522;-83
2023/07/31 16:45:35;;;;;;;1.80;0.80;;;;;;;23.91;72.39;99467.74;179757;1260;46056;-83
2023/07/31 16:49:39;;;;;;;1.90;1.00;;;;;;;23.93;72.58;99467.36;179651;1258;45996;-83
2023/07/31 16:53:43;;;;;;;6.00;1.10;;;;;;;23.95;71.98;99467.80;179461;1259;44637;-83
2023/07/31 16:57:47;;;;;;;4.80;2.50;;;;;;;23.95;71.40;99466.58;179369;1259;46190;-83
2023/07/31 17:01:51;;;;;;;1.90;0.90;;;;;;;23.92;69.45;99462.55;179374;1259;59667;-83
2023/07/31 17:05:54;;;;;;;3.80;1.30;;;;;;;23.88;68.94;99462.29;179408;1260;45906;-83
2023/07/31 17:09:58;;;;;;;4.10;1.80;;;;;;;23.82;68.37;99467.98;179646;1258;44678;-82
2023/07/31 17:14:06;;;;;;;2.00;1.10;;;;;;;23.77;68.73;99459.05;179541;1259;46060;-83
2023/07/31 17:18:10;;;;;;;3.20;1.20;;;;;;;23.73;68.56;99455.20;179245;1259;195772;-83
2023/07/31 17:22:14;;;;;;;2.70;1.60;;;;;;;23.67;67.97;99449.55;179648;1259;59279;-83
2023/07/31 17:26:18;;;;;;;1.50;1.40;;;;;;;23.67;68.16;99444.36;179467;1259;46115;-83
2023/07/31 17:30:21;;;;;;;5.90;1.80;;;;;;;23.71;68.81;99446.52;179475;1262;46038;-83
2023/07/31 17:34:25;;;;;;;18.00;2.80;;;;;;;23.75;68.68;99447.65;179560;1259;45962;-83
2023/07/31 17:38:29;;;;;;;2.50;1.30;;;;;;;23.80;69.36;99447.55;179801;1259;45284;-83
2023/07/31 17:42:37;;;;;;;3.10;0.90;;;;;;;23.83;69.20;99448.28;179902;1259;60098;-82
2023/07/31 17:46:42;;;;;;;;;;;;;;;23.82;69.08;99463.63;179492;1262;46049;-83
2023/07/31 17:50:51;;;;;;;6.00;2.30;;;;;;;23.77;69.39;99462.16;180022;1258;45684;-83
2023/07/31 17:54:55;;;;;;;5.80;2.00;;;;;;;23.72;69.19;99464.08;179684;1260;43918;-81
2023/07/31 17:58:59;;;;;;;8.20;1.60;;;;;;;23.72;69.14;99462.95;180039;1259;46059;-82
2023/07/31 18:03:06;;;;;;;4.60;1.60;;;;;;;23.66;69.32;99465.50;179756;1261;61806;-82
2023/07/31 18:07:10;;;;;;;3.40;2.00;;;;;;;23.61;69.52;99470.23;179847;1259;44110;-83
2023/07/31 18:11:14;;;;;;;2.40;1.20;;;;;;;23.56;69.58;99473.17;179848;1260;44215;-82
2023/07/31 18:15:18;;;;;;;2.50;1.40;;;;;;;23.49;69.80;99468.72;179799;1261;44774;-82
2023/07/31 18:19:22;;;;;;;3.10;1.10;;;;;;;23.44;70.52;99461.96;179797;1258;45933;-82
2023/07/31 18:23:26;;;;;;;3.10;1.30;;;;;;;23.39;70.86;99460.30;179507;1259;58262;-82
2023/07/31 18:27:29;;;;;;;8.70;2.10;;;;;;;23.35;70.98;99459.77;180020;1260;45897;-82
2023/07/31 18:31:33;;;;;;;5.50;1.60;;;;;;;23.30;71.13;99454.05;179716;1261;46113;-82
2023/07/31 18:35:38;;;;;;;6.00;1.30;;;;;;;23.25;71.01;99448.77;179634;1262;44921;-83
2023/07/31 18:39:43;;;;;;;3.80;1.50;;;;;;;23.20;71.25;99447.89;179660;1261;46034;-82
2023/07/31 18:43:47;;;;;;;6.30;2.00;;;;;;;23.15;71.46;99449.33;179629;1261;59701;-83
2023/07/31 18:47:50;;;;;;;3.90;2.00;;;;;;;23.13;72.09;99446.63;180049;1259;46091;-82
2023/07/31 18:51:54;;;;;;;2.90;1.60;;;;;;;23.09;72.79;99448.08;180014;1260;45907;-83
2023/07/31 18:55:58;;;;;;;5.00;2.30;;;;;;;23.06;72.98;99444.70;179891;1260;46230;-82
2023/07/31 19:00:03;;;;;;;3.20;1.90;;;;;;;23.01;73.39;99442.06;180088;1259;45942;-82
2023/07/31 19:04:07;;;;;;;1.80;1.40;;;;;;;22.91;73.96;99441.05;179846;1260;58474;-83
2023/07/31 19:08:11;;;;;;;3.50;2.50;;;;;;;22.83;74.32;99432.19;179744;1261;44882;-82
2023/07/31 19:12:15;;;;;;;3.10;1.80;;;;;;;22.77;74.74;99428.67;179911;1259;45958;-82
2023/07/31 19:16:19;;;;;;;6.70;1.90;;;;;;;22.74;74.89;99429.16;179708;1260;46096;-82
2023/07/31 19:20:23;;;;;;;4.10;2.10;;;;;;;22.68;75.66;99427.08;180105;1258;45993;-81
2023/07/31 19:24:28;;;;;;;5.70;2.50;;;;;;;22.61;76.09;99427.13;179897;1258;58855;-83
2023/07/31 19:28:38;;;;;;;3.80;1.80;;;;;;;22.57;76.38;99421.15;179773;1261;46010;-82
2023/07/31 19:32:42;;;;;;;3.80;1.90;;;;;;;22.53;76.48;99416.37;179726;1258;45916;-83
2023/07/31 19:36:47;;;;;;;6.90;3.10;;;;;;;22.49;76.61;99409.91;179959;1259;46042;-83
2023/07/31 19:40:52;;;;;;;2.20;1.90;;;;;;;22.43;76.55;99404.45;179473;1259;45901;-83
2023/07/31 19:44:56;;;;;;;5.70;3.30;;;;;;;22.38;76.89;99400.86;179551;1258;57924;-83
2023/07/31 19:48:59;;;;;;;4.30;2.70;;;;;;;22.36;77.10;99401.10;179666;1261;44524;-83
2023/07/31 19:53:03;;;;;;;5.60;2.60;;;;;;;22.34;76.89;99398.36;179852;1261;46115;-82
2023/07/31 19:57:07;;;;;;;2.90;1.70;;;;;;;22.31;76.92;99399.83;179845;1260;45990;-83
2023/07/31 20:01:11;;;;;;;3.90;2.20;;;;;;;22.29;76.99;99395.21;179708;1259;46104;-83
2023/07/31 20:05:15;;;;;;;6.00;2.40;;;;;;;22.28;77.16;99393.73;179452;1260;59475;-83
2023/07/31 20:09:19;;;;;;;5.90;2.30;;;;;;;22.26;77.10;99393.46;179231;1261;45208;-82
2023/07/31 20:13:23;;;;;;;3.40;1.80;;;;;;;22.22;77.70;99389.54;179548;1260;45176;-81
2023/07/31 20:17:27;;;;;;;2.40;1.80;;;;;;;22.18;77.78;99381.16;179416;1260;46551;-82
2023/07/31 20:21:31;;;;;;;9.80;4.40;;;;;;;22.18;77.75;99375.95;179414;1259;45918;-82
2023/07/31 20:25:35;;;;;;;3.10;1.80;;;;;;;22.15;77.55;99370.70;179264;1260;57595;-83
2023/07/31 20:29:40;;;;;;;7.10;2.80;;;;;;;22.14;77.98;99365.08;179502;1260;46717;-83
2023/07/31 20:33:44;;;;;;;3.20;2.20;;;;;;;22.10;78.39;99364.88;179347;1260;46118;-84
2023/07/31 20:37:48;;;;;;;4.10;1.40;;;;;;;22.07;78.27;99363.25;179459;1260;46002;-83
2023/07/31 20:41:52;;;;;;;2.40;1.60;;;;;;;22.00;78.07;99362.27;179339;1260;45359;-84
2023/07/31 20:45:56;;;;;;;2.90;1.70;;;;;;;21.95;78.46;99357.86;179315;1260;60758;-83
2023/07/31 20:50:00;;;;;;;4.60;2.20;;;;;;;21.91;78.72;99353.11;179956;1260;46117;-83
2023/07/31 20:54:05;;;;;;;15.70;2.30;;;;;;;21.87;79.02;99352.20;179705;1261;46120;-82
2023/07/31 20:58:09;;;;;;;9.70;2.80;;;;;;;21.83;79.47;99352.23;179420;1260;46339;-83
2023/07/31 21:02:13;;;;;;;6.60;2.60;;;;;;;21.81;79.33;99345.09;179361;1260;44676;-83
2023/07/31 21:06:19;;;;;;;14.80;4.70;;;;;;;21.83;79.73;99340.58;179365;1260;59204;-83
2023/07/31 21:10:23;;;;;;;13.10;6.00;;;;;;;21.86;79.51;99338.05;179521;1260;45017;-82
2023/07/31 21:14:26;;;;;;;29.30;8.20;;;;;;;21.89;80.13;99330.44;179735;1260;46423;-82
2023/07/31 21:18:30;;;;;;;27.60;7.50;;;;;;;21.90;80.27;99328.21;179530;1260;43912;-82
2023/07/31 21:22:34;;;;;;;40.20;10.10;;;;;;;21.89;80.59;99327.23;179192;1260;46047;-83
2023/07/31 21:26:37;;;;;;;38.60;10.10;;;;;;;21.86;80.98;99319.10;179278;1259;57943;-83
2023/07/31 21:30:41;;;;;;;17.20;4.50;;;;;;;21.82;81.82;99311.89;179299;1260;44142;-82
2023/07/31 21:34:49;;;;;;;2.90;1.50;;;;;;;21.74;82.30;99306.55;179656;1259;44145;-83
2023/07/31 21:38:52;;;;;;;7.30;2.30;;;;;;;21.69;82.44;99295.32;179163;1259;44732;-83
2023/07/31 21:42:56;;;;;;;9.60;2.10;;;;;;;21.64;82.80;99288.48;179163;1260;44006;-82
2023/07/31 21:47:00;;;;;;;4.10;2.40;;;;;;;21.61;82.95;99285.19;178955;1258;58263;-83
2023/07/31 21:51:04;;;;;;;3.80;2.10;;;;;;;21.52;83.85;99284.04;179029;1259;45930;-83
2023/07/31 21:55:08;;;;;;;3.50;2.30;;;;;;;21.48;83.23;99280.00;179118;1262;46258;-83
2023/07/31 21:59:12;;;;;;;3.70;2.30;;;;;;;21.45;83.85;99277.55;178731;1260;45995;-84
2023/07/31 22:03:16;;;;;;;3.50;1.60;;;;;;;21.41;83.53;99279.69;179008;1259;46078;-83